sensor_id;sensor_type;location;lat;lon;timestamp;temperature;humidity
2749;DHT22;1382;52.142;11.618;2023-04-25T00:01:12;12.70;46.40
2749;DHT22;1382;52.142;11.618;2023-04-25T00:03:39;12.70;46.50
2749;DHT22;1382;52.142;11.618;2023-04-25T00:06:06;12.70;46.80
2749;DHT22;1382;52.142;11.618;2023-04-25T00:08:33;12.70;47.10
2749;DHT22;1382;52.142;11.618;2023-04-25T00:11:01;12.60;46.60
2749;DHT22;1382;52.142;11.618;2023-04-25T00:13:28;12.60;47.10
2749;DHT22;1382;52.142;11.618;2023-04-25T00:15:54;12.60;46.60
2749;DHT22;1382;52.142;11.618;2023-04-25T00:18:21;12.60;47.00
2749;DHT22;1382;52.142;11.618;2023-04-25T00:20:48;12.60;46.70
2749;DHT22;1382;52.142;11.618;2023-04-25T00:23:15;12.50;46.30
2749;DHT22;1382;52.142;11.618;2023-04-25T00:25:42;12.50;46.40
2749;DHT22;1382;52.142;11.618;2023-04-25T00:28:10;12.50;46.90
2749;DHT22;1382;52.142;11.618;2023-04-25T00:30:37;12.50;47.30
2749;DHT22;1382;52.142;11.618;2023-04-25T00:33:04;12.50;47.50
2749;DHT22;1382;52.142;11.618;2023-04-25T00:35:31;12.40;48.00
2749;DHT22;1382;52.142;11.618;2023-04-25T00:37:57;12.40;48.20
2749;DHT22;1382;52.142;11.618;2023-04-25T00:40:24;12.40;47.30
2749;DHT22;1382;52.142;11.618;2023-04-25T00:42:51;12.40;48.00
2749;DHT22;1382;52.142;11.618;2023-04-25T00:45:20;12.40;47.70
2749;DHT22;1382;52.142;11.618;2023-04-25T00:47:46;12.40;48.50
2749;DHT22;1382;52.142;11.618;2023-04-25T00:50:13;12.30;48.00
2749;DHT22;1382;52.142;11.618;2023-04-25T00:52:43;12.40;48.00
2749;DHT22;1382;52.142;11.618;2023-04-25T00:55:11;12.30;48.70
2749;DHT22;1382;52.142;11.618;2023-04-25T00:57:38;12.30;48.40
2749;DHT22;1382;52.142;11.618;2023-04-25T01:00:07;12.30;48.80
2749;DHT22;1382;52.142;11.618;2023-04-25T01:02:36;12.30;48.20
2749;DHT22;1382;52.142;11.618;2023-04-25T01:05:04;12.30;47.80
2749;DHT22;1382;52.142;11.618;2023-04-25T01:07:31;12.40;48.30
2749;DHT22;1382;52.142;11.618;2023-04-25T01:09:58;12.40;48.30
2749;DHT22;1382;52.142;11.618;2023-04-25T01:12:24;12.30;48.60
2749;DHT22;1382;52.142;11.618;2023-04-25T01:14:51;12.30;48.80
2749;DHT22;1382;52.142;11.618;2023-04-25T01:17:18;12.30;47.90
2749;DHT22;1382;52.142;11.618;2023-04-25T01:19:46;12.30;47.60
2749;DHT22;1382;52.142;11.618;2023-04-25T01:22:15;12.40;47.90
2749;DHT22;1382;52.142;11.618;2023-04-25T01:24:42;12.40;48.00
2749;DHT22;1382;52.142;11.618;2023-04-25T01:27:09;12.40;48.00
2749;DHT22;1382;52.142;11.618;2023-04-25T01:29:37;12.30;49.10
2749;DHT22;1382;52.142;11.618;2023-04-25T01:32:04;12.30;49.00
2749;DHT22;1382;52.142;11.618;2023-04-25T01:34:32;12.30;49.00
2749;DHT22;1382;52.142;11.618;2023-04-25T01:36:59;12.30;48.90
2749;DHT22;1382;52.142;11.618;2023-04-25T01:39:28;12.30;49.30
2749;DHT22;1382;52.142;11.618;2023-04-25T01:41:55;12.30;49.60
2749;DHT22;1382;52.142;11.618;2023-04-25T01:44:23;12.30;49.10
2749;DHT22;1382;52.142;11.618;2023-04-25T01:46:50;12.20;49.20
2749;DHT22;1382;52.142;11.618;2023-04-25T01:49:16;12.20;48.90
2749;DHT22;1382;52.142;11.618;2023-04-25T01:51:43;12.20;49.20
2749;DHT22;1382;52.142;11.618;2023-04-25T01:54:10;12.20;48.70
2749;DHT22;1382;52.142;11.618;2023-04-25T01:56:39;12.30;48.60
2749;DHT22;1382;52.142;11.618;2023-04-25T01:59:06;12.30;48.20
2749;DHT22;1382;52.142;11.618;2023-04-25T02:01:32;12.30;48.30
2749;DHT22;1382;52.142;11.618;2023-04-25T02:03:59;12.30;48.70
2749;DHT22;1382;52.142;11.618;2023-04-25T02:06:26;12.30;48.40
2749;DHT22;1382;52.142;11.618;2023-04-25T02:08:53;12.30;48.20
2749;DHT22;1382;52.142;11.618;2023-04-25T02:11:20;12.50;47.90
2749;DHT22;1382;52.142;11.618;2023-04-25T02:13:48;12.30;47.90
2749;DHT22;1382;52.142;11.618;2023-04-25T02:16:15;12.30;48.10
2749;DHT22;1382;52.142;11.618;2023-04-25T02:18:42;12.40;48.50
2749;DHT22;1382;52.142;11.618;2023-04-25T02:21:08;12.40;48.20
2749;DHT22;1382;52.142;11.618;2023-04-25T02:23:35;12.40;48.40
2749;DHT22;1382;52.142;11.618;2023-04-25T02:26:02;12.30;48.10
2749;DHT22;1382;52.142;11.618;2023-04-25T02:28:28;12.30;48.10
2749;DHT22;1382;52.142;11.618;2023-04-25T02:30:57;12.30;48.70
2749;DHT22;1382;52.142;11.618;2023-04-25T02:33:23;12.30;48.50
2749;DHT22;1382;52.142;11.618;2023-04-25T02:35:50;12.30;48.30
2749;DHT22;1382;52.142;11.618;2023-04-25T02:38:17;12.30;48.40
2749;DHT22;1382;52.142;11.618;2023-04-25T02:40:43;12.30;48.80
2749;DHT22;1382;52.142;11.618;2023-04-25T02:43:10;12.30;48.10
2749;DHT22;1382;52.142;11.618;2023-04-25T02:45:37;12.30;48.50
2749;DHT22;1382;52.142;11.618;2023-04-25T02:48:05;12.30;48.40
2749;DHT22;1382;52.142;11.618;2023-04-25T02:50:32;12.30;48.60
2749;DHT22;1382;52.142;11.618;2023-04-25T02:52:59;12.30;48.70
2749;DHT22;1382;52.142;11.618;2023-04-25T02:55:25;12.30;48.30
2749;DHT22;1382;52.142;11.618;2023-04-25T02:57:54;12.30;48.20
2749;DHT22;1382;52.142;11.618;2023-04-25T03:00:20;12.30;48.90
2749;DHT22;1382;52.142;11.618;2023-04-25T03:02:47;12.20;48.90
2749;DHT22;1382;52.142;11.618;2023-04-25T03:05:15;12.20;48.30
2749;DHT22;1382;52.142;11.618;2023-04-25T03:07:42;12.20;48.30
2749;DHT22;1382;52.142;11.618;2023-04-25T03:10:10;12.30;48.10
2749;DHT22;1382;52.142;11.618;2023-04-25T03:12:36;12.30;48.20
2749;DHT22;1382;52.142;11.618;2023-04-25T03:15:04;12.30;48.00
2749;DHT22;1382;52.142;11.618;2023-04-25T03:17:31;12.30;47.50
2749;DHT22;1382;52.142;11.618;2023-04-25T03:19:58;12.20;48.40
2749;DHT22;1382;52.142;11.618;2023-04-25T03:22:26;12.20;47.90
2749;DHT22;1382;52.142;11.618;2023-04-25T03:24:52;12.20;47.80
2749;DHT22;1382;52.142;11.618;2023-04-25T03:27:19;12.20;48.00
2749;DHT22;1382;52.142;11.618;2023-04-25T03:29:46;12.20;47.40
2749;DHT22;1382;52.142;11.618;2023-04-25T03:32:13;12.20;47.70
2749;DHT22;1382;52.142;11.618;2023-04-25T03:34:39;12.20;47.60
2749;DHT22;1382;52.142;11.618;2023-04-25T03:37:06;12.20;47.40
2749;DHT22;1382;52.142;11.618;2023-04-25T03:39:34;12.10;47.50
2749;DHT22;1382;52.142;11.618;2023-04-25T03:42:01;12.10;47.10
2749;DHT22;1382;52.142;11.618;2023-04-25T03:44:28;12.10;47.20
2749;DHT22;1382;52.142;11.618;2023-04-25T03:46:54;12.10;46.90
2749;DHT22;1382;52.142;11.618;2023-04-25T03:49:21;12.10;47.30
2749;DHT22;1382;52.142;11.618;2023-04-25T03:51:48;12.10;47.40
2749;DHT22;1382;52.142;11.618;2023-04-25T03:54:14;12.00;46.90
2749;DHT22;1382;52.142;11.618;2023-04-25T03:56:42;12.00;47.50
2749;DHT22;1382;52.142;11.618;2023-04-25T03:59:09;12.00;47.50
2749;DHT22;1382;52.142;11.618;2023-04-25T04:01:36;12.00;47.00
2749;DHT22;1382;52.142;11.618;2023-04-25T04:04:03;12.00;47.40
2749;DHT22;1382;52.142;11.618;2023-04-25T04:06:30;12.00;47.00
2749;DHT22;1382;52.142;11.618;2023-04-25T04:08:56;12.00;47.10
2749;DHT22;1382;52.142;11.618;2023-04-25T04:11:23;12.00;47.00
2749;DHT22;1382;52.142;11.618;2023-04-25T04:13:51;12.00;48.00
2749;DHT22;1382;52.142;11.618;2023-04-25T04:16:18;12.00;47.40
2749;DHT22;1382;52.142;11.618;2023-04-25T04:18:46;12.00;47.20
2749;DHT22;1382;52.142;11.618;2023-04-25T04:21:12;12.00;47.90
2749;DHT22;1382;52.142;11.618;2023-04-25T04:23:39;12.00;47.50
2749;DHT22;1382;52.142;11.618;2023-04-25T04:26:06;12.00;47.20
2749;DHT22;1382;52.142;11.618;2023-04-25T04:28:33;12.00;47.20
2749;DHT22;1382;52.142;11.618;2023-04-25T04:31:01;12.00;47.80
2749;DHT22;1382;52.142;11.618;2023-04-25T04:33:27;12.00;48.10
2749;DHT22;1382;52.142;11.618;2023-04-25T04:35:54;12.00;48.10
2749;DHT22;1382;52.142;11.618;2023-04-25T04:38:21;12.00;48.30
2749;DHT22;1382;52.142;11.618;2023-04-25T04:40:48;12.00;48.50
2749;DHT22;1382;52.142;11.618;2023-04-25T04:43:14;11.90;49.50
2749;DHT22;1382;52.142;11.618;2023-04-25T04:45:41;11.90;49.10
2749;DHT22;1382;52.142;11.618;2023-04-25T04:48:09;11.90;49.10
2749;DHT22;1382;52.142;11.618;2023-04-25T04:50:36;11.90;48.80
2749;DHT22;1382;52.142;11.618;2023-04-25T04:53:04;11.90;49.10
2749;DHT22;1382;52.142;11.618;2023-04-25T04:55:30;11.90;49.40
2749;DHT22;1382;52.142;11.618;2023-04-25T04:57:57;11.90;50.20
2749;DHT22;1382;52.142;11.618;2023-04-25T05:00:24;11.90;49.80
2749;DHT22;1382;52.142;11.618;2023-04-25T05:02:54;11.90;49.80
2749;DHT22;1382;52.142;11.618;2023-04-25T05:05:22;11.90;50.70
2749;DHT22;1382;52.142;11.618;2023-04-25T05:07:48;11.90;50.80
2749;DHT22;1382;52.142;11.618;2023-04-25T05:10:16;11.90;51.30
2749;DHT22;1382;52.142;11.618;2023-04-25T05:12:43;11.90;50.90
2749;DHT22;1382;52.142;11.618;2023-04-25T05:15:10;11.90;51.40
2749;DHT22;1382;52.142;11.618;2023-04-25T05:17:36;11.90;51.50
2749;DHT22;1382;52.142;11.618;2023-04-25T05:20:04;11.90;51.70
2749;DHT22;1382;52.142;11.618;2023-04-25T05:22:32;11.90;50.40
2749;DHT22;1382;52.142;11.618;2023-04-25T05:24:59;11.90;50.60
2749;DHT22;1382;52.142;11.618;2023-04-25T05:27:26;12.00;51.50
2749;DHT22;1382;52.142;11.618;2023-04-25T05:29:53;12.00;51.10
2749;DHT22;1382;52.142;11.618;2023-04-25T05:32:19;12.00;52.30
2749;DHT22;1382;52.142;11.618;2023-04-25T05:34:46;12.00;52.60
2749;DHT22;1382;52.142;11.618;2023-04-25T05:37:13;11.90;51.80
2749;DHT22;1382;52.142;11.618;2023-04-25T05:39:41;11.90;51.40
2749;DHT22;1382;52.142;11.618;2023-04-25T05:42:08;12.00;51.90
2749;DHT22;1382;52.142;11.618;2023-04-25T05:44:34;12.00;52.30
2749;DHT22;1382;52.142;11.618;2023-04-25T05:47:01;12.00;52.70
2749;DHT22;1382;52.142;11.618;2023-04-25T05:49:28;12.00;53.80
2749;DHT22;1382;52.142;11.618;2023-04-25T05:51:55;11.90;53.90
2749;DHT22;1382;52.142;11.618;2023-04-25T05:54:21;11.90;54.20
2749;DHT22;1382;52.142;11.618;2023-04-25T05:56:49;11.90;54.50
2749;DHT22;1382;52.142;11.618;2023-04-25T05:59:16;11.80;54.50
2749;DHT22;1382;52.142;11.618;2023-04-25T06:01:43;11.80;55.00
2749;DHT22;1382;52.142;11.618;2023-04-25T06:04:09;11.80;54.20
2749;DHT22;1382;52.142;11.618;2023-04-25T06:06:36;11.70;53.70
2749;DHT22;1382;52.142;11.618;2023-04-25T06:09:03;11.70;53.20
2749;DHT22;1382;52.142;11.618;2023-04-25T06:11:33;11.70;52.90
2749;DHT22;1382;52.142;11.618;2023-04-25T06:14:05;11.70;52.40
2749;DHT22;1382;52.142;11.618;2023-04-25T06:16:32;11.70;52.10
2749;DHT22;1382;52.142;11.618;2023-04-25T06:18:59;11.60;51.90
2749;DHT22;1382;52.142;11.618;2023-04-25T06:21:25;11.60;51.80
2749;DHT22;1382;52.142;11.618;2023-04-25T06:23:52;11.60;51.60
2749;DHT22;1382;52.142;11.618;2023-04-25T06:26:19;11.60;51.50
2749;DHT22;1382;52.142;11.618;2023-04-25T06:28:46;11.70;51.30
2749;DHT22;1382;52.142;11.618;2023-04-25T06:31:14;11.70;51.00
2749;DHT22;1382;52.142;11.618;2023-04-25T06:33:40;11.80;51.10
2749;DHT22;1382;52.142;11.618;2023-04-25T06:36:07;11.80;50.60
2749;DHT22;1382;52.142;11.618;2023-04-25T06:38:34;11.80;50.40
2749;DHT22;1382;52.142;11.618;2023-04-25T06:41:01;11.70;50.40
2749;DHT22;1382;52.142;11.618;2023-04-25T06:43:27;11.70;50.50
2749;DHT22;1382;52.142;11.618;2023-04-25T06:45:54;11.90;50.70
2749;DHT22;1382;52.142;11.618;2023-04-25T06:48:22;11.80;50.60
2749;DHT22;1382;52.142;11.618;2023-04-25T06:50:49;11.80;50.20
2749;DHT22;1382;52.142;11.618;2023-04-25T06:53:16;11.80;50.10
2749;DHT22;1382;52.142;11.618;2023-04-25T06:55:42;11.90;50.40
2749;DHT22;1382;52.142;11.618;2023-04-25T06:58:09;11.90;51.00
2749;DHT22;1382;52.142;11.618;2023-04-25T07:00:36;11.90;50.30
2749;DHT22;1382;52.142;11.618;2023-04-25T07:03:03;12.00;50.30
2749;DHT22;1382;52.142;11.618;2023-04-25T07:05:31;12.00;50.10
2749;DHT22;1382;52.142;11.618;2023-04-25T07:07:58;12.10;49.60
2749;DHT22;1382;52.142;11.618;2023-04-25T07:10:25;12.10;49.30
2749;DHT22;1382;52.142;11.618;2023-04-25T07:12:51;12.10;49.20
2749;DHT22;1382;52.142;11.618;2023-04-25T07:15:18;12.10;48.90
2749;DHT22;1382;52.142;11.618;2023-04-25T07:17:45;12.10;49.30
2749;DHT22;1382;52.142;11.618;2023-04-25T07:20:12;12.10;49.50
2749;DHT22;1382;52.142;11.618;2023-04-25T07:22:40;12.20;48.90
2749;DHT22;1382;52.142;11.618;2023-04-25T07:25:07;12.20;48.10
2749;DHT22;1382;52.142;11.618;2023-04-25T07:27:34;12.20;48.30
2749;DHT22;1382;52.142;11.618;2023-04-25T07:30:01;12.30;47.80
2749;DHT22;1382;52.142;11.618;2023-04-25T07:32:29;12.30;47.60
2749;DHT22;1382;52.142;11.618;2023-04-25T07:34:55;12.30;47.30
2749;DHT22;1382;52.142;11.618;2023-04-25T07:37:22;12.40;45.90
2749;DHT22;1382;52.142;11.618;2023-04-25T07:39:50;12.40;45.30
2749;DHT22;1382;52.142;11.618;2023-04-25T07:42:17;12.40;45.50
2749;DHT22;1382;52.142;11.618;2023-04-25T07:44:43;12.40;45.80
2749;DHT22;1382;52.142;11.618;2023-04-25T07:47:10;12.50;45.70
2749;DHT22;1382;52.142;11.618;2023-04-25T07:49:37;12.60;47.20
2749;DHT22;1382;52.142;11.618;2023-04-25T07:52:05;12.70;46.20
2749;DHT22;1382;52.142;11.618;2023-04-25T07:54:32;12.90;46.10
2749;DHT22;1382;52.142;11.618;2023-04-25T07:57:00;13.00;45.10
2749;DHT22;1382;52.142;11.618;2023-04-25T07:59:27;13.10;45.50
2749;DHT22;1382;52.142;11.618;2023-04-25T08:01:55;13.10;44.30
2749;DHT22;1382;52.142;11.618;2023-04-25T08:04:22;13.20;44.20
2749;DHT22;1382;52.142;11.618;2023-04-25T08:06:49;13.20;44.20
2749;DHT22;1382;52.142;11.618;2023-04-25T08:09:16;13.30;43.60
2749;DHT22;1382;52.142;11.618;2023-04-25T08:11:43;13.40;41.80
2749;DHT22;1382;52.142;11.618;2023-04-25T08:14:11;13.50;42.00
2749;DHT22;1382;52.142;11.618;2023-04-25T08:16:38;13.50;41.90
2749;DHT22;1382;52.142;11.618;2023-04-25T08:19:05;13.60;42.80
2749;DHT22;1382;52.142;11.618;2023-04-25T08:21:32;13.60;42.50
2749;DHT22;1382;52.142;11.618;2023-04-25T08:23:58;13.60;41.70
2749;DHT22;1382;52.142;11.618;2023-04-25T08:26:25;13.60;41.30
2749;DHT22;1382;52.142;11.618;2023-04-25T08:28:52;13.70;42.00
2749;DHT22;1382;52.142;11.618;2023-04-25T08:31:20;13.80;42.20
2749;DHT22;1382;52.142;11.618;2023-04-25T08:33:47;13.80;42.20
2749;DHT22;1382;52.142;11.618;2023-04-25T08:36:14;13.90;41.70
2749;DHT22;1382;52.142;11.618;2023-04-25T08:38:50;14.00;42.30
2749;DHT22;1382;52.142;11.618;2023-04-25T08:41:21;14.10;42.30
2749;DHT22;1382;52.142;11.618;2023-04-25T08:43:48;14.10;41.20
2749;DHT22;1382;52.142;11.618;2023-04-25T08:46:17;14.20;41.00
2749;DHT22;1382;52.142;11.618;2023-04-25T08:48:46;14.20;40.60
2749;DHT22;1382;52.142;11.618;2023-04-25T08:51:20;14.20;39.90
2749;DHT22;1382;52.142;11.618;2023-04-25T08:53:50;14.30;40.00
2749;DHT22;1382;52.142;11.618;2023-04-25T08:56:23;14.40;39.70
2749;DHT22;1382;52.142;11.618;2023-04-25T08:58:51;14.30;39.50
2749;DHT22;1382;52.142;11.618;2023-04-25T09:01:18;14.20;38.40
2749;DHT22;1382;52.142;11.618;2023-04-25T09:03:47;14.20;38.10
2749;DHT22;1382;52.142;11.618;2023-04-25T09:06:14;14.20;39.90
2749;DHT22;1382;52.142;11.618;2023-04-25T09:08:42;14.30;40.20
2749;DHT22;1382;52.142;11.618;2023-04-25T09:11:09;14.40;40.70
2749;DHT22;1382;52.142;11.618;2023-04-25T09:13:36;14.50;38.70
2749;DHT22;1382;52.142;11.618;2023-04-25T09:16:03;14.60;40.00
2749;DHT22;1382;52.142;11.618;2023-04-25T09:18:31;14.70;40.30
2749;DHT22;1382;52.142;11.618;2023-04-25T09:21:06;14.80;39.60
2749;DHT22;1382;52.142;11.618;2023-04-25T09:23:41;14.90;38.70
2749;DHT22;1382;52.142;11.618;2023-04-25T09:26:08;14.90;37.30
2749;DHT22;1382;52.142;11.618;2023-04-25T09:28:35;14.90;37.40
2749;DHT22;1382;52.142;11.618;2023-04-25T09:31:02;15.00;37.60
2749;DHT22;1382;52.142;11.618;2023-04-25T09:33:32;15.00;37.30
2749;DHT22;1382;52.142;11.618;2023-04-25T09:36:05;15.10;37.20
2749;DHT22;1382;52.142;11.618;2023-04-25T09:38:33;15.20;37.10
2749;DHT22;1382;52.142;11.618;2023-04-25T09:41:06;15.20;35.40
2749;DHT22;1382;52.142;11.618;2023-04-25T09:43:32;15.10;36.90
2749;DHT22;1382;52.142;11.618;2023-04-25T09:45:59;15.10;38.10
2749;DHT22;1382;52.142;11.618;2023-04-25T09:48:27;15.20;38.70
2749;DHT22;1382;52.142;11.618;2023-04-25T09:51:06;15.30;38.90
2749;DHT22;1382;52.142;11.618;2023-04-25T09:53:33;15.40;36.60
2749;DHT22;1382;52.142;11.618;2023-04-25T09:56:00;15.50;36.30
2749;DHT22;1382;52.142;11.618;2023-04-25T09:58:30;15.50;35.80
2749;DHT22;1382;52.142;11.618;2023-04-25T10:01:00;15.60;36.00
2749;DHT22;1382;52.142;11.618;2023-04-25T10:03:29;15.60;35.10
2749;DHT22;1382;52.142;11.618;2023-04-25T10:05:58;15.60;35.50
2749;DHT22;1382;52.142;11.618;2023-04-25T10:08:31;15.60;35.30
2749;DHT22;1382;52.142;11.618;2023-04-25T10:11:00;15.80;36.10
2749;DHT22;1382;52.142;11.618;2023-04-25T10:13:27;15.60;36.40
2749;DHT22;1382;52.142;11.618;2023-04-25T10:15:55;15.60;35.40
2749;DHT22;1382;52.142;11.618;2023-04-25T10:18:22;15.60;35.40
2749;DHT22;1382;52.142;11.618;2023-04-25T10:20:50;15.50;34.70
2749;DHT22;1382;52.142;11.618;2023-04-25T10:23:20;15.50;35.00
2749;DHT22;1382;52.142;11.618;2023-04-25T10:25:49;15.40;35.60
2749;DHT22;1382;52.142;11.618;2023-04-25T10:28:15;15.40;35.80
2749;DHT22;1382;52.142;11.618;2023-04-25T10:30:57;15.30;35.90
2749;DHT22;1382;52.142;11.618;2023-04-25T10:33:30;15.30;36.50
2749;DHT22;1382;52.142;11.618;2023-04-25T10:35:58;15.20;36.20
2749;DHT22;1382;52.142;11.618;2023-04-25T10:38:26;15.20;37.50
2749;DHT22;1382;52.142;11.618;2023-04-25T10:41:09;15.20;37.20
2749;DHT22;1382;52.142;11.618;2023-04-25T10:43:38;15.30;36.50
2749;DHT22;1382;52.142;11.618;2023-04-25T10:46:18;15.20;36.40
2749;DHT22;1382;52.142;11.618;2023-04-25T10:48:49;15.20;36.70
2749;DHT22;1382;52.142;11.618;2023-04-25T10:51:21;15.10;36.50
2749;DHT22;1382;52.142;11.618;2023-04-25T10:53:57;15.00;36.60
2749;DHT22;1382;52.142;11.618;2023-04-25T10:56:28;15.10;37.70
2749;DHT22;1382;52.142;11.618;2023-04-25T10:59:06;15.10;37.40
2749;DHT22;1382;52.142;11.618;2023-04-25T11:01:37;15.20;38.00
2749;DHT22;1382;52.142;11.618;2023-04-25T11:04:04;15.20;37.50
2749;DHT22;1382;52.142;11.618;2023-04-25T11:06:40;15.30;37.00
2749;DHT22;1382;52.142;11.618;2023-04-25T11:09:11;15.30;35.40
2749;DHT22;1382;52.142;11.618;2023-04-25T11:11:39;15.40;35.70
2749;DHT22;1382;52.142;11.618;2023-04-25T11:14:06;15.20;35.00
2749;DHT22;1382;52.142;11.618;2023-04-25T11:16:33;15.20;34.90
2749;DHT22;1382;52.142;11.618;2023-04-25T11:18:59;15.10;35.50
2749;DHT22;1382;52.142;11.618;2023-04-25T11:21:26;15.10;33.00
2749;DHT22;1382;52.142;11.618;2023-04-25T11:23:53;15.10;32.80
2749;DHT22;1382;52.142;11.618;2023-04-25T11:26:20;15.10;33.10
2749;DHT22;1382;52.142;11.618;2023-04-25T11:28:49;15.10;32.80
2749;DHT22;1382;52.142;11.618;2023-04-25T11:31:15;15.10;33.40
2749;DHT22;1382;52.142;11.618;2023-04-25T11:33:42;15.10;31.70
2749;DHT22;1382;52.142;11.618;2023-04-25T11:36:09;15.10;32.40
2749;DHT22;1382;52.142;11.618;2023-04-25T11:38:36;15.10;34.10
2749;DHT22;1382;52.142;11.618;2023-04-25T11:41:03;15.10;33.60
2749;DHT22;1382;52.142;11.618;2023-04-25T11:43:30;15.20;33.60
2749;DHT22;1382;52.142;11.618;2023-04-25T11:45:58;15.20;35.40
2749;DHT22;1382;52.142;11.618;2023-04-25T11:48:25;15.30;33.10
2749;DHT22;1382;52.142;11.618;2023-04-25T11:50:53;15.30;32.70
2749;DHT22;1382;52.142;11.618;2023-04-25T11:53:20;15.20;31.80
2749;DHT22;1382;52.142;11.618;2023-04-25T11:55:47;15.20;33.90
2749;DHT22;1382;52.142;11.618;2023-04-25T11:58:13;15.20;35.50
2749;DHT22;1382;52.142;11.618;2023-04-25T12:00:42;15.30;34.60
2749;DHT22;1382;52.142;11.618;2023-04-25T12:03:18;15.40;35.30
2749;DHT22;1382;52.142;11.618;2023-04-25T12:05:45;15.50;34.70
2749;DHT22;1382;52.142;11.618;2023-04-25T12:08:13;15.60;35.40
2749;DHT22;1382;52.142;11.618;2023-04-25T12:10:41;15.70;33.60
2749;DHT22;1382;52.142;11.618;2023-04-25T12:13:19;15.90;35.40
2749;DHT22;1382;52.142;11.618;2023-04-25T12:15:46;15.90;34.80
2749;DHT22;1382;52.142;11.618;2023-04-25T12:18:13;16.00;34.00
2749;DHT22;1382;52.142;11.618;2023-04-25T12:20:41;16.10;33.20
2749;DHT22;1382;52.142;11.618;2023-04-25T12:23:08;16.10;32.40
2749;DHT22;1382;52.142;11.618;2023-04-25T12:25:36;16.10;32.50
2749;DHT22;1382;52.142;11.618;2023-04-25T12:28:13;16.20;32.90
2749;DHT22;1382;52.142;11.618;2023-04-25T12:30:57;16.30;32.00
2749;DHT22;1382;52.142;11.618;2023-04-25T12:33:25;16.30;32.40
2749;DHT22;1382;52.142;11.618;2023-04-25T12:35:53;16.30;33.90
2749;DHT22;1382;52.142;11.618;2023-04-25T12:38:22;16.30;33.00
2749;DHT22;1382;52.142;11.618;2023-04-25T12:40:48;16.40;32.80
2749;DHT22;1382;52.142;11.618;2023-04-25T12:43:15;16.40;31.50
2749;DHT22;1382;52.142;11.618;2023-04-25T12:45:42;16.30;31.20
2749;DHT22;1382;52.142;11.618;2023-04-25T12:48:08;16.20;30.30
2749;DHT22;1382;52.142;11.618;2023-04-25T12:50:35;16.10;30.10
2749;DHT22;1382;52.142;11.618;2023-04-25T12:53:03;16.00;32.00
2749;DHT22;1382;52.142;11.618;2023-04-25T12:55:30;16.00;32.00
2749;DHT22;1382;52.142;11.618;2023-04-25T12:57:57;16.00;31.90
2749;DHT22;1382;52.142;11.618;2023-04-25T13:00:23;16.10;33.30
2749;DHT22;1382;52.142;11.618;2023-04-25T13:02:50;16.10;31.50
2749;DHT22;1382;52.142;11.618;2023-04-25T13:05:17;16.10;31.10
2749;DHT22;1382;52.142;11.618;2023-04-25T13:07:44;16.00;30.70
2749;DHT22;1382;52.142;11.618;2023-04-25T13:10:12;15.90;31.90
2749;DHT22;1382;52.142;11.618;2023-04-25T13:12:39;15.90;32.10
2749;DHT22;1382;52.142;11.618;2023-04-25T13:15:07;15.90;32.20
2749;DHT22;1382;52.142;11.618;2023-04-25T13:17:34;15.90;32.90
2749;DHT22;1382;52.142;11.618;2023-04-25T13:20:00;15.90;32.20
2749;DHT22;1382;52.142;11.618;2023-04-25T13:22:27;15.90;32.10
2749;DHT22;1382;52.142;11.618;2023-04-25T13:24:54;15.80;32.90
2749;DHT22;1382;52.142;11.618;2023-04-25T13:27:22;15.70;32.70
2749;DHT22;1382;52.142;11.618;2023-04-25T13:29:48;15.70;33.80
2749;DHT22;1382;52.142;11.618;2023-04-25T13:32:15;15.70;33.30
2749;DHT22;1382;52.142;11.618;2023-04-25T13:34:42;15.80;33.90
2749;DHT22;1382;52.142;11.618;2023-04-25T13:37:09;15.90;34.20
2749;DHT22;1382;52.142;11.618;2023-04-25T13:39:35;16.00;33.30
2749;DHT22;1382;52.142;11.618;2023-04-25T13:42:02;16.00;33.80
2749;DHT22;1382;52.142;11.618;2023-04-25T13:44:30;16.00;33.20
2749;DHT22;1382;52.142;11.618;2023-04-25T13:46:57;16.00;32.90
2749;DHT22;1382;52.142;11.618;2023-04-25T13:49:24;16.10;32.00
2749;DHT22;1382;52.142;11.618;2023-04-25T13:51:50;16.10;31.70
2749;DHT22;1382;52.142;11.618;2023-04-25T13:54:17;16.10;31.30
2749;DHT22;1382;52.142;11.618;2023-04-25T13:56:44;16.10;31.50
2749;DHT22;1382;52.142;11.618;2023-04-25T13:59:11;16.10;32.40
2749;DHT22;1382;52.142;11.618;2023-04-25T14:01:39;16.20;33.00
2749;DHT22;1382;52.142;11.618;2023-04-25T14:04:06;16.20;32.60
2749;DHT22;1382;52.142;11.618;2023-04-25T14:06:33;16.30;32.50
2749;DHT22;1382;52.142;11.618;2023-04-25T14:09:00;16.40;32.90
2749;DHT22;1382;52.142;11.618;2023-04-25T14:11:27;16.30;31.80
2749;DHT22;1382;52.142;11.618;2023-04-25T14:13:53;16.20;31.90
2749;DHT22;1382;52.142;11.618;2023-04-25T14:16:20;16.20;33.10
2749;DHT22;1382;52.142;11.618;2023-04-25T14:18:48;16.20;32.20
2749;DHT22;1382;52.142;11.618;2023-04-25T14:21:15;16.20;32.70
2749;DHT22;1382;52.142;11.618;2023-04-25T14:23:42;16.20;32.60
2749;DHT22;1382;52.142;11.618;2023-04-25T14:26:08;16.10;32.70
2749;DHT22;1382;52.142;11.618;2023-04-25T14:28:35;16.10;31.50
2749;DHT22;1382;52.142;11.618;2023-04-25T14:31:02;16.10;31.30
2749;DHT22;1382;52.142;11.618;2023-04-25T14:33:29;16.10;31.30
2749;DHT22;1382;52.142;11.618;2023-04-25T14:35:57;16.00;30.90
2749;DHT22;1382;52.142;11.618;2023-04-25T14:38:23;15.90;32.60
2749;DHT22;1382;52.142;11.618;2023-04-25T14:40:50;16.00;32.60
2749;DHT22;1382;52.142;11.618;2023-04-25T14:43:17;16.00;32.90
2749;DHT22;1382;52.142;11.618;2023-04-25T14:45:44;16.00;33.10
2749;DHT22;1382;52.142;11.618;2023-04-25T14:48:10;16.00;33.00
2749;DHT22;1382;52.142;11.618;2023-04-25T14:50:37;16.00;32.60
2749;DHT22;1382;52.142;11.618;2023-04-25T14:53:06;16.00;31.00
2749;DHT22;1382;52.142;11.618;2023-04-25T14:55:32;16.00;32.40
2749;DHT22;1382;52.142;11.618;2023-04-25T14:57:59;16.00;31.90
2749;DHT22;1382;52.142;11.618;2023-04-25T15:00:26;16.10;32.30
2749;DHT22;1382;52.142;11.618;2023-04-25T15:02:53;16.00;31.30
2749;DHT22;1382;52.142;11.618;2023-04-25T15:05:20;16.00;31.40
2749;DHT22;1382;52.142;11.618;2023-04-25T15:07:46;16.00;31.20
2749;DHT22;1382;52.142;11.618;2023-04-25T15:10:14;16.10;33.50
2749;DHT22;1382;52.142;11.618;2023-04-25T15:12:41;16.10;33.30
2749;DHT22;1382;52.142;11.618;2023-04-25T15:15:09;16.20;34.20
2749;DHT22;1382;52.142;11.618;2023-04-25T15:17:35;16.40;33.40
2749;DHT22;1382;52.142;11.618;2023-04-25T15:20:03;16.50;32.90
2749;DHT22;1382;52.142;11.618;2023-04-25T15:22:30;16.60;32.50
2749;DHT22;1382;52.142;11.618;2023-04-25T15:24:56;16.70;33.30
2749;DHT22;1382;52.142;11.618;2023-04-25T15:27:24;16.80;32.00
2749;DHT22;1382;52.142;11.618;2023-04-25T15:29:51;16.90;31.70
2749;DHT22;1382;52.142;11.618;2023-04-25T15:32:18;16.90;33.10
2749;DHT22;1382;52.142;11.618;2023-04-25T15:34:45;17.00;34.00
2749;DHT22;1382;52.142;11.618;2023-04-25T15:37:11;17.20;32.70
2749;DHT22;1382;52.142;11.618;2023-04-25T15:39:38;17.30;33.60
2749;DHT22;1382;52.142;11.618;2023-04-25T15:42:05;17.30;32.00
2749;DHT22;1382;52.142;11.618;2023-04-25T15:44:33;17.30;32.50
2749;DHT22;1382;52.142;11.618;2023-04-25T15:47:00;17.30;31.20